createdAt,value
2022-11-05T00:00:33.048Z,11.32
2022-11-05T00:03:19.271Z,11.93
2022-11-05T00:06:08.296Z,11.23
2022-11-05T00:08:54.628Z,11.48
2022-11-05T00:11:41.974Z,11.63
2022-11-05T00:14:28.119Z,12.48
2022-11-05T00:16:55.431Z,12.02
2022-11-05T00:19:22.658Z,13.20
2022-11-05T00:22:08.372Z,12.43
2022-11-05T00:25:04.919Z,11.98
2022-11-05T00:27:34.159Z,12.00
2022-11-05T00:30:05.148Z,11.85
2022-11-05T00:32:32.802Z,12.18
2022-11-05T00:35:00.152Z,12.13
2022-11-05T00:37:28.627Z,11.82
2022-11-05T00:39:55.893Z,12.32
2022-11-05T00:42:41.780Z,12.38
2022-11-05T00:45:10.036Z,11.40
2022-11-05T00:47:58.309Z,10.60
2022-11-05T00:50:26.634Z,11.75
2022-11-05T00:52:56.280Z,12.38
2022-11-05T00:55:24.825Z,11.38
2022-11-05T00:57:52.134Z,11.82
2022-11-05T01:00:19.663Z,12.30
2022-11-05T01:02:47.281Z,11.50
2022-11-05T01:05:14.732Z,12.45
2022-11-05T01:07:41.978Z,12.10
2022-11-05T01:10:09.530Z,11.90
2022-11-05T01:12:36.859Z,12.30
2022-11-05T01:15:04.815Z,12.02
2022-11-05T01:17:32.116Z,11.20
2022-11-05T01:19:59.383Z,11.38
2022-11-05T01:22:26.922Z,10.55
2022-11-05T01:24:54.185Z,11.23
2022-11-05T01:27:21.467Z,9.95
2022-11-05T01:29:48.830Z,9.43
2022-11-05T01:32:16.056Z,9.82
2022-11-05T01:34:43.379Z,9.35
2022-11-05T01:37:10.769Z,9.13
2022-11-05T01:39:38.047Z,8.57
2022-11-05T01:42:15.450Z,9.65
2022-11-05T01:45:02.888Z,9.32
2022-11-05T01:48:12.808Z,9.38
2022-11-05T01:50:51.921Z,9.32
2022-11-05T01:53:25.949Z,9.90
2022-11-05T01:56:22.225Z,9.65
2022-11-05T01:59:03.446Z,9.32
2022-11-05T02:01:31.433Z,9.10
2022-11-05T02:04:06.580Z,9.73
2022-11-05T02:06:42.425Z,10.15
2022-11-05T02:09:16.586Z,9.43
2022-11-05T02:11:44.085Z,10.32
2022-11-05T02:14:11.356Z,9.73
2022-11-05T02:16:41.645Z,9.75
2022-11-05T02:19:57.149Z,9.57
2022-11-05T02:22:44.741Z,9.50
2022-11-05T02:25:34.960Z,9.80
2022-11-05T02:28:19.786Z,9.85
2022-11-05T02:31:10.118Z,9.88
2022-11-05T02:33:56.912Z,8.60
2022-11-05T02:36:34.473Z,8.68
2022-11-05T02:39:23.591Z,8.68
2022-11-05T02:42:05.207Z,8.48
2022-11-05T02:44:41.241Z,7.70
2022-11-05T02:47:16.968Z,7.53
2022-11-05T02:50:05.777Z,7.28
2022-11-05T02:53:16.299Z,6.85
2022-11-05T02:55:52.211Z,7.47
2022-11-05T02:58:19.521Z,7.53
2022-11-05T03:00:57.680Z,7.50
2022-11-05T03:03:39.399Z,6.82
2022-11-05T03:06:18.401Z,7.65
2022-11-05T03:09:06.980Z,7.35
2022-11-05T03:12:00.975Z,6.40
2022-11-05T03:15:01.159Z,6.50
2022-11-05T03:17:37.778Z,6.90
2022-11-05T03:20:20.608Z,7.28
2022-11-05T03:22:51.620Z,7.22
2022-11-05T03:25:22.647Z,6.95
2022-11-05T03:27:56.167Z,7.35
2022-11-05T03:30:25.173Z,8.20
2022-11-05T03:32:59.226Z,8.15
2022-11-05T03:35:34.989Z,9.73
2022-11-05T03:38:06.550Z,8.93
2022-11-05T03:40:36.586Z,10.20
2022-11-05T03:43:08.133Z,9.77
2022-11-05T03:45:43.213Z,9.73
2022-11-05T03:48:12.705Z,10.98
2022-11-05T03:51:06.196Z,11.27
2022-11-05T03:53:41.039Z,11.05
2022-11-05T03:56:31.388Z,11.35
2022-11-05T03:59:00.288Z,11.00
2022-11-05T04:01:28.681Z,12.25
2022-11-05T04:03:56.305Z,12.38
2022-11-05T04:06:42.023Z,12.20
2022-11-05T04:09:29.000Z,13.63
2022-11-05T04:12:14.713Z,13.63
2022-11-05T04:14:42.074Z,13.23
2022-11-05T04:17:09.933Z,14.60
2022-11-05T04:20:03.515Z,14.15
2022-11-05T04:22:52.267Z,14.90
2022-11-05T04:25:20.348Z,15.05
2022-11-05T04:27:48.438Z,14.70
2022-11-05T04:30:21.613Z,15.65
2022-11-05T04:33:11.426Z,14.23
2022-11-05T04:35:41.931Z,15.02
2022-11-05T04:38:12.003Z,15.30
2022-11-05T04:40:39.282Z,15.63
2022-11-05T04:43:13.571Z,15.55
2022-11-05T04:45:42.943Z,15.48
2022-11-05T04:48:10.772Z,15.75
2022-11-05T04:50:38.165Z,15.85
2022-11-05T04:53:05.460Z,16.27
2022-11-05T04:55:32.745Z,16.40
2022-11-05T04:58:00.007Z,16.70
2022-11-05T05:00:27.442Z,16.42
2022-11-05T05:02:54.765Z,17.27
2022-11-05T05:05:22.998Z,18.00
2022-11-05T05:07:50.211Z,18.60
2022-11-05T05:10:17.567Z,18.88
2022-11-05T05:12:44.803Z,18.33
2022-11-05T05:15:12.096Z,20.05
2022-11-05T05:17:39.310Z,21.00
2022-11-05T05:20:25.534Z,21.00
2022-11-05T05:22:54.273Z,22.33
2022-11-05T05:25:22.427Z,22.45
2022-11-05T05:27:49.690Z,22.73
2022-11-05T05:30:17.131Z,23.38
2022-11-05T05:32:44.398Z,23.88
2022-11-05T05:35:12.069Z,22.73
2022-11-05T05:37:39.372Z,25.15
2022-11-05T05:40:07.748Z,24.90
2022-11-05T05:42:40.220Z,25.23
2022-11-05T05:45:10.918Z,27.67
2022-11-05T05:47:38.624Z,27.13
2022-11-05T05:50:06.196Z,27.73
2022-11-05T05:52:33.423Z,29.55
2022-11-05T05:55:00.680Z,29.70
2022-11-05T05:57:27.950Z,28.67
2022-11-05T05:59:55.204Z,28.65
2022-11-05T06:02:23.002Z,28.73
2022-11-05T06:04:50.411Z,29.27
2022-11-05T06:07:17.633Z,28.98
2022-11-05T06:09:44.896Z,29.13
2022-11-05T06:12:12.463Z,29.77
2022-11-05T06:14:39.786Z,29.52
2022-11-05T06:17:07.661Z,29.88
2022-11-05T06:19:34.914Z,29.70
2022-11-05T06:22:02.157Z,30.23
2022-11-05T06:24:29.427Z,30.85
2022-11-05T06:26:56.684Z,31.38
2022-11-05T06:29:23.970Z,30.25
2022-11-05T06:31:51.231Z,30.20
2022-11-05T06:34:18.492Z,29.48
2022-11-05T06:36:45.774Z,29.20
2022-11-05T06:39:13.347Z,29.35
2022-11-05T06:42:03.856Z,29.27
2022-11-05T06:44:28.019Z,28.40
2022-11-05T06:46:55.320Z,29.20
2022-11-05T06:49:25.587Z,30.55
2022-11-05T06:51:53.256Z,28.30
2022-11-05T06:54:20.848Z,27.80
2022-11-05T06:56:48.116Z,27.83
2022-11-05T06:59:15.547Z,29.80
2022-11-05T07:01:42.895Z,29.45
2022-11-05T07:04:12.484Z,28.23
2022-11-05T07:06:39.815Z,27.25
2022-11-05T07:09:07.100Z,28.65
2022-11-05T07:11:34.454Z,28.13
2022-11-05T07:14:01.781Z,26.83
2022-11-05T07:16:29.128Z,26.45
2022-11-05T07:18:56.431Z,25.90
2022-11-05T07:21:23.680Z,25.77
2022-11-05T07:23:51.071Z,24.60
2022-11-05T07:26:18.459Z,25.52
2022-11-05T07:28:45.867Z,22.65
2022-11-05T07:31:13.217Z,20.70
2022-11-05T07:33:40.903Z,19.10
2022-11-05T07:36:08.592Z,17.90
2022-11-05T07:38:35.889Z,17.05
2022-11-05T07:41:03.234Z,16.65
2022-11-05T07:43:30.490Z,14.80
2022-11-05T07:45:57.883Z,14.85
2022-11-05T07:48:25.109Z,15.20
2022-11-05T07:50:55.599Z,13.55
2022-11-05T07:53:22.864Z,14.07
2022-11-05T07:55:52.406Z,12.85
2022-11-05T07:58:19.654Z,12.35
2022-11-05T08:00:47.069Z,12.52
2022-11-05T08:03:19.236Z,13.13
2022-11-05T08:05:48.236Z,12.68
2022-11-05T08:08:17.882Z,12.85
2022-11-05T08:10:45.513Z,12.68
2022-11-05T08:13:13.721Z,13.00
2022-11-05T08:15:42.625Z,13.50
2022-11-05T08:18:15.213Z,12.07
2022-11-05T08:20:43.840Z,9.32
2022-11-05T08:23:11.734Z,8.48
2022-11-05T08:25:39.825Z,7.20
2022-11-05T08:28:11.152Z,7.53
2022-11-05T08:30:38.537Z,6.18
2022-11-05T08:33:12.003Z,7.40
2022-11-05T08:35:40.140Z,6.47
2022-11-05T08:38:09.875Z,7.15
2022-11-05T08:40:37.922Z,6.35
2022-11-05T08:43:07.475Z,5.45
2022-11-05T08:45:38.529Z,6.18
2022-11-05T08:48:07.557Z,5.38
2022-11-05T08:50:35.607Z,4.97
2022-11-05T08:53:03.511Z,4.40
2022-11-05T08:55:30.942Z,4.55
2022-11-05T08:58:00.448Z,4.43
2022-11-05T09:00:30.095Z,4.20
2022-11-05T09:03:01.969Z,5.03
2022-11-05T09:05:30.682Z,4.40
2022-11-05T09:08:01.293Z,4.88
2022-11-05T09:10:29.041Z,4.60
2022-11-05T09:12:56.552Z,4.30
2022-11-05T09:15:24.470Z,4.80
2022-11-05T09:17:52.393Z,5.70
2022-11-05T09:20:19.691Z,4.47
2022-11-05T09:22:47.335Z,4.22
2022-11-05T09:25:17.651Z,4.82
2022-11-05T09:27:45.032Z,4.45
2022-11-05T09:30:13.511Z,4.57
2022-11-05T09:32:43.485Z,4.82
2022-11-05T09:35:10.876Z,4.70
2022-11-05T09:37:38.407Z,5.22
2022-11-05T09:40:06.609Z,4.65
2022-11-05T09:42:44.811Z,5.57
2022-11-05T09:45:21.819Z,4.32
2022-11-05T09:48:04.041Z,5.10
2022-11-05T09:50:36.492Z,4.63
2022-11-05T09:53:04.927Z,4.97
2022-11-05T09:55:56.797Z,5.22
2022-11-05T09:58:43.567Z,4.93
2022-11-05T10:01:16.011Z,4.95
2022-11-05T10:03:49.859Z,4.82
2022-11-05T10:06:22.915Z,5.53
2022-11-05T10:08:59.935Z,5.68
2022-11-05T10:11:43.284Z,5.63
2022-11-05T10:14:16.398Z,5.97
2022-11-05T10:16:50.646Z,5.75
2022-11-05T10:19:24.461Z,5.72
2022-11-05T10:22:18.845Z,5.78
2022-11-05T10:24:49.075Z,5.57
2022-11-05T10:27:36.502Z,5.82
2022-11-05T10:30:04.419Z,5.45
2022-11-05T10:32:35.982Z,5.32
2022-11-05T10:35:07.727Z,4.82
2022-11-05T10:37:40.705Z,5.30
2022-11-05T10:40:40.844Z,5.40
2022-11-05T10:43:28.184Z,5.97
2022-11-05T10:45:58.476Z,4.90
2022-11-05T10:48:52.094Z,5.57
2022-11-05T10:51:19.602Z,6.00
2022-11-05T10:54:02.177Z,5.20
2022-11-05T10:56:38.269Z,4.50
2022-11-05T10:59:26.732Z,5.25
2022-11-05T11:02:15.434Z,5.53
2022-11-05T11:04:42.773Z,5.80
2022-11-05T11:07:22.691Z,5.90
2022-11-05T11:09:51.128Z,62.13
2022-11-05T11:12:27.640Z,10.32
2022-11-05T11:15:16.571Z,5.82
2022-11-05T11:17:43.863Z,5.70
2022-11-05T11:20:33.998Z,5.03
2022-11-05T11:23:15.838Z,5.95
2022-11-05T11:25:52.681Z,6.65
2022-11-05T11:28:29.504Z,6.50
2022-11-05T11:31:20.907Z,5.75
2022-11-05T11:33:51.702Z,20.92
2022-11-05T11:36:24.830Z,5.95
2022-11-05T11:39:00.103Z,5.15
2022-11-05T11:41:32.564Z,5.80
2022-11-05T11:44:09.895Z,5.97
2022-11-05T11:46:37.573Z,5.53
2022-11-05T11:49:06.942Z,5.78
2022-11-05T11:51:49.477Z,4.55
2022-11-05T11:54:28.632Z,4.97
2022-11-05T11:56:56.422Z,5.72
2022-11-05T11:59:53.963Z,4.90
2022-11-05T12:02:32.016Z,5.00
2022-11-05T12:05:23.028Z,4.60
2022-11-05T12:07:57.947Z,5.20
2022-11-05T12:10:39.298Z,57.10
2022-11-05T12:13:21.696Z,5.28
2022-11-05T12:15:53.573Z,5.15
2022-11-05T12:18:49.804Z,4.60
2022-11-05T12:21:41.058Z,6.00
2022-11-05T12:24:33.839Z,4.63
2022-11-05T12:27:36.033Z,5.47
2022-11-05T12:30:12.176Z,5.90
2022-11-05T12:33:01.039Z,4.60
2022-11-05T12:35:47.007Z,5.15
2022-11-05T12:38:32.512Z,5.70
2022-11-05T12:41:11.038Z,5.97
2022-11-05T12:44:03.834Z,4.82
2022-11-05T12:46:37.075Z,8.20
2022-11-05T12:49:42.804Z,4.20
2022-11-05T12:52:27.561Z,5.07
2022-11-05T12:54:54.754Z,4.68
2022-11-05T12:57:23.503Z,4.55
2022-11-05T12:59:54.735Z,4.53
2022-11-05T13:02:40.343Z,4.53
2022-11-05T13:05:45.631Z,4.80
2022-11-05T13:08:22.919Z,4.32
2022-11-05T13:11:06.734Z,5.03
2022-11-05T13:13:45.799Z,4.68
2022-11-05T13:16:22.573Z,4.28
2022-11-05T13:19:02.886Z,5.00
2022-11-05T13:21:31.179Z,4.32
2022-11-05T13:24:27.060Z,4.60
2022-11-05T13:27:12.451Z,4.20
2022-11-05T13:29:56.900Z,4.00
2022-11-05T13:32:38.463Z,4.57
2022-11-05T13:35:23.667Z,4.63
2022-11-05T13:38:13.646Z,4.43
2022-11-05T13:41:18.444Z,3.72
2022-11-05T13:44:10.133Z,3.65
2022-11-05T13:47:26.406Z,4.13
2022-11-05T13:53:06.453Z,3.13
2022-11-05T13:55:33.695Z,3.23
2022-11-05T13:58:27.527Z,3.50
2022-11-05T14:01:16.451Z,4.32
2022-11-05T14:03:49.418Z,3.42
2022-11-05T14:06:31.653Z,3.70
2022-11-05T14:09:03.001Z,3.85
2022-11-05T14:11:42.829Z,3.35
2022-11-05T14:14:28.019Z,2.75
2022-11-05T14:20:06.264Z,3.53
2022-11-05T14:22:33.473Z,3.17
2022-11-05T14:25:02.924Z,4.03
2022-11-05T14:27:36.439Z,3.20
2022-11-05T14:30:42.341Z,3.10
2022-11-05T14:36:21.904Z,2.88
2022-11-05T14:38:52.068Z,2.60
2022-11-05T14:41:20.699Z,2.70
2022-11-05T14:44:04.716Z,2.67
2022-11-05T14:46:49.175Z,2.90
2022-11-05T14:49:27.061Z,2.95
2022-11-05T14:51:57.799Z,2.70
2022-11-05T14:54:29.511Z,3.15
2022-11-05T14:56:59.474Z,2.92
2022-11-05T14:59:31.616Z,3.65
2022-11-05T15:02:02.944Z,3.65
2022-11-05T15:04:35.811Z,4.05
2022-11-05T15:07:03.075Z,4.05
2022-11-05T15:09:54.223Z,4.15
2022-11-05T15:12:48.990Z,3.50
2022-11-05T15:15:21.429Z,2.63
2022-11-05T15:18:01.546Z,3.20
2022-11-05T15:20:40.477Z,4.10
2022-11-05T15:23:12.834Z,6.00
2022-11-05T15:25:56.074Z,6.88
2022-11-05T15:28:34.419Z,5.25
2022-11-05T15:31:04.959Z,4.05
2022-11-05T15:33:32.806Z,3.25
2022-11-05T15:36:30.469Z,3.15
2022-11-05T15:39:28.031Z,2.60
2022-11-05T15:41:47.098Z,2.45
2022-11-05T15:44:29.098Z,2.90
2022-11-05T15:47:16.642Z,2.95
2022-11-05T15:49:47.056Z,2.90
2022-11-05T15:52:17.154Z,2.78
2022-11-05T15:54:44.553Z,2.78
2022-11-05T15:57:25.582Z,2.05
2022-11-05T15:59:53.110Z,2.13
2022-11-05T16:02:28.771Z,2.05
2022-11-05T16:04:57.525Z,2.50
2022-11-05T16:07:25.427Z,3.08
2022-11-05T16:10:01.328Z,2.53
2022-11-05T16:12:33.068Z,2.30
2022-11-05T16:15:07.971Z,2.30
2022-11-05T16:17:46.923Z,2.17
2022-11-05T16:20:40.617Z,2.20
2022-11-05T16:23:23.735Z,2.33
2022-11-05T16:25:51.576Z,1.90
2022-11-05T16:28:25.543Z,1.80
2022-11-05T16:30:56.979Z,2.15
2022-11-05T16:33:26.928Z,2.38
2022-11-05T16:35:54.244Z,1.95
2022-11-05T16:38:21.965Z,2.35
2022-11-05T16:40:49.192Z,2.42
2022-11-05T16:43:26.417Z,2.13
2022-11-05T16:45:57.776Z,2.55
2022-11-05T16:48:26.057Z,2.15
2022-11-05T16:50:53.540Z,2.33
2022-11-05T16:53:20.883Z,1.95
2022-11-05T16:55:48.322Z,2.60
2022-11-05T16:58:22.690Z,1.92
2022-11-05T17:00:54.601Z,2.20
2022-11-05T17:03:21.858Z,2.35
2022-11-05T17:05:49.182Z,1.80
2022-11-05T17:08:16.591Z,2.83
2022-11-05T17:10:43.979Z,2.20
2022-11-05T17:13:18.684Z,2.38
2022-11-05T17:18:39.339Z,2.47
2022-11-05T17:21:08.602Z,3.10
2022-11-05T17:23:36.634Z,2.92
2022-11-05T17:26:11.204Z,3.10
2022-11-05T17:28:40.464Z,2.55
2022-11-05T17:31:12.093Z,2.88
2022-11-05T17:33:40.176Z,2.33
2022-11-05T17:36:14.208Z,2.17
2022-11-05T17:38:41.968Z,3.35
2022-11-05T17:41:20.756Z,2.70
2022-11-05T17:43:48.516Z,2.05
2022-11-05T17:46:16.875Z,2.65
2022-11-05T17:48:44.827Z,2.28
2022-11-05T17:51:15.077Z,2.65
2022-11-05T17:53:44.387Z,2.80
2022-11-05T17:56:14.035Z,4.25
2022-11-05T17:58:41.700Z,3.60
2022-11-05T18:01:43.126Z,3.80
2022-11-05T18:04:10.953Z,2.58
2022-11-05T18:06:39.777Z,2.80
2022-11-05T18:09:08.539Z,3.05
2022-11-05T18:11:36.945Z,3.45
2022-11-05T18:14:04.835Z,2.90
2022-11-05T18:16:32.446Z,2.92
2022-11-05T18:18:59.792Z,2.90
2022-11-05T18:21:27.114Z,3.45
2022-11-05T18:23:54.469Z,3.35
2022-11-05T18:26:22.013Z,3.40
2022-11-05T18:28:49.298Z,3.60
2022-11-05T18:31:21.326Z,3.22
2022-11-05T18:33:50.025Z,3.10
2022-11-05T18:36:22.241Z,3.63
2022-11-05T18:38:50.488Z,3.60
2022-11-05T18:41:17.929Z,3.72
2022-11-05T18:43:45.300Z,2.97
2022-11-05T18:46:29.340Z,3.65
2022-11-05T18:49:00.811Z,3.67
2022-11-05T18:51:28.431Z,4.43
2022-11-05T18:53:56.038Z,3.92
2022-11-05T18:56:23.468Z,4.30
2022-11-05T18:59:14.833Z,4.10
2022-11-05T19:01:41.106Z,4.53
2022-11-05T19:04:08.826Z,3.97
2022-11-05T19:06:36.920Z,4.38
2022-11-05T19:09:05.673Z,4.60
2022-11-05T19:11:33.019Z,5.22
2022-11-05T19:14:00.626Z,5.13
2022-11-05T19:16:29.753Z,4.93
2022-11-05T19:19:02.287Z,4.82
2022-11-05T19:21:30.360Z,5.10
2022-11-05T19:24:01.365Z,5.10
2022-11-05T19:26:29.664Z,5.35
2022-11-05T19:28:59.147Z,4.78
2022-11-05T19:31:26.985Z,4.82
2022-11-05T19:33:54.573Z,5.70
2022-11-05T19:36:23.253Z,4.63
2022-11-05T19:38:58.665Z,4.53
2022-11-05T19:41:27.052Z,4.47
2022-11-05T19:43:55.577Z,3.95
2022-11-05T19:46:23.816Z,4.75
2022-11-05T19:48:51.823Z,4.70
2022-11-05T19:51:22.375Z,4.40
2022-11-05T19:53:52.457Z,4.50
2022-11-05T19:56:25.659Z,4.60
2022-11-05T19:58:53.660Z,5.28
2022-11-05T20:01:22.698Z,5.45
2022-11-05T20:03:50.441Z,4.72
2022-11-05T20:06:20.661Z,4.60
2022-11-05T20:09:19.493Z,4.90
2022-11-05T20:11:37.717Z,5.40
2022-11-05T20:14:06.135Z,4.82
2022-11-05T20:16:38.212Z,5.90
2022-11-05T20:19:08.001Z,4.60
2022-11-05T20:21:35.435Z,5.32
2022-11-05T20:24:03.279Z,4.50
2022-11-05T20:26:30.956Z,4.88
2022-11-05T20:28:58.327Z,4.88
2022-11-05T20:31:25.796Z,5.80
2022-11-05T20:33:53.652Z,5.35
2022-11-05T20:36:23.544Z,4.15
2022-11-05T20:38:56.554Z,4.90
2022-11-05T20:41:24.565Z,4.28
2022-11-05T20:43:52.251Z,5.13
2022-11-05T20:46:21.829Z,4.55
2022-11-05T20:48:49.733Z,4.22
2022-11-05T20:51:19.372Z,4.10
2022-11-05T20:53:47.279Z,4.50
2022-11-05T20:56:26.754Z,4.72
2022-11-05T20:58:57.818Z,4.80
2022-11-05T21:01:27.394Z,4.60
2022-11-05T21:03:54.937Z,4.45
2022-11-05T21:06:22.600Z,4.03
2022-11-05T21:08:51.409Z,4.10
2022-11-05T21:11:19.948Z,4.20
2022-11-05T21:13:47.469Z,4.47
2022-11-05T21:16:18.470Z,3.58
2022-11-05T21:18:47.039Z,4.10
2022-11-05T21:21:17.056Z,3.95
2022-11-05T21:23:44.402Z,4.25
2022-11-05T21:26:13.679Z,3.75
2022-11-05T21:28:41.852Z,3.55
2022-11-05T21:31:09.832Z,3.75
2022-11-05T21:33:37.621Z,3.95
2022-11-05T21:36:10.429Z,3.78
2022-11-05T21:38:38.205Z,3.97
2022-11-05T21:41:06.619Z,3.78
2022-11-05T21:43:34.240Z,3.33
2022-11-05T21:46:03.021Z,3.67
2022-11-05T21:48:30.982Z,4.15
2022-11-05T21:51:16.889Z,3.50
2022-11-05T21:54:02.788Z,3.83
2022-11-05T21:56:48.504Z,3.78
2022-11-05T21:59:36.836Z,3.83
2022-11-05T22:02:05.343Z,3.40
2022-11-05T22:04:42.744Z,3.20
2022-11-05T22:07:13.986Z,3.92
2022-11-05T22:09:41.317Z,4.32
2022-11-05T22:12:09.198Z,3.03
2022-11-05T22:14:36.871Z,3.28
2022-11-05T22:17:05.036Z,3.30
2022-11-05T22:19:32.930Z,3.22
2022-11-05T22:22:00.369Z,3.30
2022-11-05T22:24:30.465Z,3.20
2022-11-05T22:27:04.313Z,3.40
2022-11-05T22:29:32.001Z,3.10
2022-11-05T22:31:59.615Z,4.07
2022-11-05T22:34:27.087Z,3.55
2022-11-05T22:36:54.660Z,3.08
2022-11-05T22:39:22.339Z,3.35
2022-11-05T22:41:52.796Z,3.70
2022-11-05T22:44:20.475Z,3.35
2022-11-05T22:46:47.725Z,3.10
2022-11-05T22:49:15.054Z,3.28
2022-11-05T22:51:42.342Z,3.28
2022-11-05T22:54:10.467Z,3.42
2022-11-05T22:56:40.354Z,2.85
2022-11-05T22:59:11.948Z,3.22
2022-11-05T23:01:39.734Z,3.85
2022-11-05T23:04:07.157Z,4.03
2022-11-05T23:06:53.227Z,3.00
2022-11-05T23:09:44.257Z,3.13
2022-11-05T23:12:31.853Z,2.88
2022-11-05T23:15:01.758Z,2.80
2022-11-05T23:17:48.058Z,3.47
2022-11-05T23:20:38.343Z,2.60
2022-11-05T23:23:28.877Z,2.75
2022-11-05T23:26:00.275Z,3.40
2022-11-05T23:28:27.572Z,3.30
2022-11-05T23:31:13.269Z,3.33
2022-11-05T23:33:40.512Z,3.25
2022-11-05T23:36:31.050Z,2.75
2022-11-05T23:38:58.278Z,3.53
2022-11-05T23:41:43.832Z,3.40
2022-11-05T23:44:29.708Z,2.97
2022-11-05T23:47:15.650Z,3.17
2022-11-05T23:49:42.891Z,3.20
2022-11-05T23:52:10.164Z,3.17
2022-11-05T23:54:37.399Z,3.53
2022-11-05T23:57:05.201Z,3.00
2022-11-05T23:59:32.477Z,2.85
